sensor_id;sensor_type;location;lat;lon;timestamp;P1;durP1;ratioP1;P2;durP2;ratioP2
47309;SDS011;33046;52.270;6.832;2024-01-16T00:00:20;9.18;;;1.10;;
47309;SDS011;33046;52.270;6.832;2024-01-16T00:02:26;5.82;;;1.75;;
47309;SDS011;33046;52.270;6.832;2024-01-16T00:04:37;7.35;;;2.08;;
47309;SDS011;33046;52.270;6.832;2024-01-16T00:06:44;6.05;;;1.70;;
47309;SDS011;33046;52.270;6.832;2024-01-16T00:08:51;6.32;;;1.23;;
47309;SDS011;33046;52.270;6.832;2024-01-16T00:10:58;6.32;;;1.10;;
47309;SDS011;33046;52.270;6.832;2024-01-16T00:13:04;4.63;;;2.17;;
47309;SDS011;33046;52.270;6.832;2024-01-16T00:15:11;9.25;;;1.77;;
47309;SDS011;33046;52.270;6.832;2024-01-16T00:17:18;5.43;;;1.42;;
47309;SDS011;33046;52.270;6.832;2024-01-16T00:19:25;7.93;;;1.67;;
47309;SDS011;33046;52.270;6.832;2024-01-16T00:21:33;4.35;;;1.58;;
47309;SDS011;33046;52.270;6.832;2024-01-16T00:23:44;6.13;;;2.08;;
47309;SDS011;33046;52.270;6.832;2024-01-16T00:25:51;7.82;;;2.10;;
47309;SDS011;33046;52.270;6.832;2024-01-16T00:27:58;8.15;;;2.28;;
47309;SDS011;33046;52.270;6.832;2024-01-16T00:30:06;7.40;;;2.47;;
47309;SDS011;33046;52.270;6.832;2024-01-16T00:32:13;8.98;;;1.83;;
47309;SDS011;33046;52.270;6.832;2024-01-16T00:34:20;10.40;;;1.70;;
47309;SDS011;33046;52.270;6.832;2024-01-16T00:36:27;4.30;;;1.17;;
47309;SDS011;33046;52.270;6.832;2024-01-16T00:38:35;5.28;;;1.25;;
47309;SDS011;33046;52.270;6.832;2024-01-16T00:40:42;6.18;;;1.67;;
47309;SDS011;33046;52.270;6.832;2024-01-16T00:42:48;11.02;;;2.17;;
47309;SDS011;33046;52.270;6.832;2024-01-16T00:44:55;5.75;;;1.65;;
47309;SDS011;33046;52.270;6.832;2024-01-16T00:47:02;3.67;;;0.88;;
47309;SDS011;33046;52.270;6.832;2024-01-16T00:49:09;5.60;;;1.50;;
47309;SDS011;33046;52.270;6.832;2024-01-16T00:51:16;12.20;;;2.00;;
47309;SDS011;33046;52.270;6.832;2024-01-16T00:53:23;10.85;;;1.55;;
47309;SDS011;33046;52.270;6.832;2024-01-16T00:55:31;4.00;;;1.00;;
47309;SDS011;33046;52.270;6.832;2024-01-16T00:57:38;5.82;;;1.13;;
47309;SDS011;33046;52.270;6.832;2024-01-16T00:59:45;5.35;;;1.27;;
47309;SDS011;33046;52.270;6.832;2024-01-16T01:01:52;8.82;;;1.67;;
47309;SDS011;33046;52.270;6.832;2024-01-16T01:03:59;9.55;;;3.70;;
47309;SDS011;33046;52.270;6.832;2024-01-16T01:06:06;10.98;;;1.70;;
47309;SDS011;33046;52.270;6.832;2024-01-16T01:08:13;3.97;;;1.38;;
47309;SDS011;33046;52.270;6.832;2024-01-16T01:10:19;5.38;;;1.60;;
47309;SDS011;33046;52.270;6.832;2024-01-16T01:12:28;5.40;;;1.30;;
47309;SDS011;33046;52.270;6.832;2024-01-16T01:14:35;4.65;;;1.30;;
47309;SDS011;33046;52.270;6.832;2024-01-16T01:16:42;8.20;;;2.08;;
47309;SDS011;33046;52.270;6.832;2024-01-16T01:18:48;8.27;;;2.95;;
47309;SDS011;33046;52.270;6.832;2024-01-16T01:20:55;6.78;;;1.55;;
47309;SDS011;33046;52.270;6.832;2024-01-16T01:23:02;6.38;;;1.02;;
47309;SDS011;33046;52.270;6.832;2024-01-16T01:25:09;5.78;;;1.20;;
47309;SDS011;33046;52.270;6.832;2024-01-16T01:27:17;8.05;;;1.20;;
47309;SDS011;33046;52.270;6.832;2024-01-16T01:29:25;4.53;;;1.40;;
47309;SDS011;33046;52.270;6.832;2024-01-16T01:31:32;7.07;;;1.80;;
47309;SDS011;33046;52.270;6.832;2024-01-16T01:33:39;5.53;;;1.25;;
47309;SDS011;33046;52.270;6.832;2024-01-16T01:35:46;5.15;;;2.60;;
47309;SDS011;33046;52.270;6.832;2024-01-16T01:37:53;9.15;;;1.88;;
47309;SDS011;33046;52.270;6.832;2024-01-16T01:39:59;8.98;;;1.85;;
47309;SDS011;33046;52.270;6.832;2024-01-16T01:42:06;5.05;;;2.17;;
47309;SDS011;33046;52.270;6.832;2024-01-16T01:44:13;5.53;;;1.40;;
47309;SDS011;33046;52.270;6.832;2024-01-16T01:46:21;6.28;;;1.75;;
47309;SDS011;33046;52.270;6.832;2024-01-16T01:48:29;8.75;;;1.83;;
47309;SDS011;33046;52.270;6.832;2024-01-16T01:50:36;6.15;;;1.70;;
47309;SDS011;33046;52.270;6.832;2024-01-16T01:52:43;8.10;;;2.35;;
47309;SDS011;33046;52.270;6.832;2024-01-16T01:54:50;6.03;;;1.67;;
47309;SDS011;33046;52.270;6.832;2024-01-16T01:56:57;5.53;;;1.50;;
47309;SDS011;33046;52.270;6.832;2024-01-16T01:59:04;7.90;;;1.60;;
47309;SDS011;33046;52.270;6.832;2024-01-16T02:01:13;9.65;;;2.58;;
47309;SDS011;33046;52.270;6.832;2024-01-16T02:03:23;9.95;;;1.88;;
47309;SDS011;33046;52.270;6.832;2024-01-16T02:05:33;6.13;;;1.83;;
47309;SDS011;33046;52.270;6.832;2024-01-16T02:07:40;4.20;;;1.70;;
47309;SDS011;33046;52.270;6.832;2024-01-16T02:09:47;7.95;;;2.40;;
47309;SDS011;33046;52.270;6.832;2024-01-16T02:11:55;7.18;;;1.77;;
47309;SDS011;33046;52.270;6.832;2024-01-16T02:14:01;10.18;;;1.73;;
47309;SDS011;33046;52.270;6.832;2024-01-16T02:16:17;5.82;;;2.60;;
47309;SDS011;33046;52.270;6.832;2024-01-16T02:18:25;9.23;;;1.88;;
47309;SDS011;33046;52.270;6.832;2024-01-16T02:20:32;5.10;;;1.40;;
47309;SDS011;33046;52.270;6.832;2024-01-16T02:22:39;7.47;;;1.92;;
47309;SDS011;33046;52.270;6.832;2024-01-16T02:24:55;6.35;;;2.20;;
47309;SDS011;33046;52.270;6.832;2024-01-16T02:27:03;5.57;;;1.85;;
47309;SDS011;33046;52.270;6.832;2024-01-16T02:29:10;8.50;;;2.45;;
47309;SDS011;33046;52.270;6.832;2024-01-16T02:31:17;8.18;;;1.67;;
47309;SDS011;33046;52.270;6.832;2024-01-16T02:33:23;12.27;;;2.85;;
47309;SDS011;33046;52.270;6.832;2024-01-16T02:35:30;11.40;;;2.25;;
47309;SDS011;33046;52.270;6.832;2024-01-16T02:37:37;8.07;;;2.28;;
47309;SDS011;33046;52.270;6.832;2024-01-16T02:39:44;5.63;;;1.88;;
47309;SDS011;33046;52.270;6.832;2024-01-16T02:41:52;6.50;;;2.63;;
47309;SDS011;33046;52.270;6.832;2024-01-16T02:43:59;6.05;;;2.38;;
47309;SDS011;33046;52.270;6.832;2024-01-16T02:46:06;7.32;;;3.05;;
47309;SDS011;33046;52.270;6.832;2024-01-16T02:48:13;8.00;;;2.85;;
47309;SDS011;33046;52.270;6.832;2024-01-16T02:50:20;7.55;;;2.10;;
47309;SDS011;33046;52.270;6.832;2024-01-16T02:52:26;7.10;;;2.05;;
47309;SDS011;33046;52.270;6.832;2024-01-16T02:54:33;6.53;;;2.53;;
47309;SDS011;33046;52.270;6.832;2024-01-16T02:56:40;5.15;;;1.55;;
47309;SDS011;33046;52.270;6.832;2024-01-16T02:58:48;4.78;;;1.70;;
47309;SDS011;33046;52.270;6.832;2024-01-16T03:00:55;8.30;;;2.10;;
47309;SDS011;33046;52.270;6.832;2024-01-16T03:03:03;7.35;;;2.45;;
47309;SDS011;33046;52.270;6.832;2024-01-16T03:05:10;11.73;;;1.77;;
47309;SDS011;33046;52.270;6.832;2024-01-16T03:07:17;3.25;;;1.30;;
47309;SDS011;33046;52.270;6.832;2024-01-16T03:09:24;3.78;;;1.33;;
47309;SDS011;33046;52.270;6.832;2024-01-16T03:11:31;4.82;;;1.33;;
47309;SDS011;33046;52.270;6.832;2024-01-16T03:13:39;5.18;;;1.23;;
47309;SDS011;33046;52.270;6.832;2024-01-16T03:15:47;5.43;;;1.42;;
47309;SDS011;33046;52.270;6.832;2024-01-16T03:17:54;10.48;;;2.92;;
47309;SDS011;33046;52.270;6.832;2024-01-16T03:20:00;5.57;;;1.55;;
47309;SDS011;33046;52.270;6.832;2024-01-16T03:22:07;4.13;;;1.23;;
47309;SDS011;33046;52.270;6.832;2024-01-16T03:24:14;5.30;;;1.50;;
47309;SDS011;33046;52.270;6.832;2024-01-16T03:26:21;4.45;;;1.58;;
47309;SDS011;33046;52.270;6.832;2024-01-16T03:28:28;5.03;;;1.10;;
47309;SDS011;33046;52.270;6.832;2024-01-16T03:30:35;3.95;;;1.00;;
47309;SDS011;33046;52.270;6.832;2024-01-16T03:32:43;8.63;;;1.92;;
47309;SDS011;33046;52.270;6.832;2024-01-16T03:34:50;9.90;;;3.33;;
47309;SDS011;33046;52.270;6.832;2024-01-16T03:36:57;3.10;;;1.15;;
47309;SDS011;33046;52.270;6.832;2024-01-16T03:39:04;3.97;;;1.38;;
47309;SDS011;33046;52.270;6.832;2024-01-16T03:41:11;6.35;;;1.63;;
47309;SDS011;33046;52.270;6.832;2024-01-16T03:43:18;6.15;;;0.93;;
47309;SDS011;33046;52.270;6.832;2024-01-16T03:45:24;10.35;;;2.30;;
47309;SDS011;33046;52.270;6.832;2024-01-16T03:47:31;9.75;;;2.25;;
47309;SDS011;33046;52.270;6.832;2024-01-16T03:49:39;7.65;;;1.67;;
47309;SDS011;33046;52.270;6.832;2024-01-16T03:51:46;3.97;;;1.25;;
47309;SDS011;33046;52.270;6.832;2024-01-16T03:53:53;6.35;;;1.60;;
47309;SDS011;33046;52.270;6.832;2024-01-16T03:56:00;5.30;;;0.82;;
47309;SDS011;33046;52.270;6.832;2024-01-16T03:58:07;6.45;;;1.10;;
47309;SDS011;33046;52.270;6.832;2024-01-16T04:00:15;5.93;;;1.15;;
47309;SDS011;33046;52.270;6.832;2024-01-16T04:02:22;3.28;;;1.05;;
47309;SDS011;33046;52.270;6.832;2024-01-16T04:04:29;8.02;;;1.58;;
47309;SDS011;33046;52.270;6.832;2024-01-16T04:06:37;4.70;;;1.73;;
47309;SDS011;33046;52.270;6.832;2024-01-16T04:08:44;7.25;;;2.13;;
47309;SDS011;33046;52.270;6.832;2024-01-16T04:10:51;6.70;;;1.10;;
47309;SDS011;33046;52.270;6.832;2024-01-16T04:12:59;3.92;;;2.03;;
47309;SDS011;33046;52.270;6.832;2024-01-16T04:15:07;3.80;;;1.77;;
47309;SDS011;33046;52.270;6.832;2024-01-16T04:17:14;5.72;;;1.30;;
47309;SDS011;33046;52.270;6.832;2024-01-16T04:19:21;3.15;;;1.25;;
47309;SDS011;33046;52.270;6.832;2024-01-16T04:21:28;4.75;;;1.10;;
47309;SDS011;33046;52.270;6.832;2024-01-16T04:23:36;7.43;;;1.25;;
47309;SDS011;33046;52.270;6.832;2024-01-16T04:25:43;7.03;;;1.35;;
47309;SDS011;33046;52.270;6.832;2024-01-16T04:27:50;2.53;;;1.10;;
47309;SDS011;33046;52.270;6.832;2024-01-16T04:29:56;3.92;;;1.20;;
47309;SDS011;33046;52.270;6.832;2024-01-16T04:32:03;6.28;;;1.10;;
47309;SDS011;33046;52.270;6.832;2024-01-16T04:34:10;6.38;;;3.40;;
47309;SDS011;33046;52.270;6.832;2024-01-16T04:36:17;7.32;;;1.40;;
47309;SDS011;33046;52.270;6.832;2024-01-16T04:38:24;5.22;;;2.05;;
47309;SDS011;33046;52.270;6.832;2024-01-16T04:40:32;5.53;;;1.50;;
47309;SDS011;33046;52.270;6.832;2024-01-16T04:42:39;5.18;;;1.10;;
47309;SDS011;33046;52.270;6.832;2024-01-16T04:44:46;3.45;;;1.05;;
47309;SDS011;33046;52.270;6.832;2024-01-16T04:46:53;4.47;;;2.35;;
47309;SDS011;33046;52.270;6.832;2024-01-16T04:49:00;5.35;;;1.05;;
47309;SDS011;33046;52.270;6.832;2024-01-16T04:51:07;5.93;;;1.70;;
47309;SDS011;33046;52.270;6.832;2024-01-16T04:53:13;9.82;;;1.58;;
47309;SDS011;33046;52.270;6.832;2024-01-16T04:55:20;8.48;;;2.35;;
47309;SDS011;33046;52.270;6.832;2024-01-16T04:57:28;5.53;;;1.58;;
47309;SDS011;33046;52.270;6.832;2024-01-16T04:59:36;4.30;;;1.48;;
47309;SDS011;33046;52.270;6.832;2024-01-16T05:01:43;5.15;;;1.48;;
47309;SDS011;33046;52.270;6.832;2024-01-16T05:03:50;7.53;;;2.95;;
47309;SDS011;33046;52.270;6.832;2024-01-16T05:05:57;6.20;;;3.47;;
47309;SDS011;33046;52.270;6.832;2024-01-16T05:08:03;3.92;;;1.20;;
47309;SDS011;33046;52.270;6.832;2024-01-16T05:10:11;3.33;;;1.15;;
47309;SDS011;33046;52.270;6.832;2024-01-16T05:12:18;5.68;;;1.30;;
47309;SDS011;33046;52.270;6.832;2024-01-16T05:14:26;6.28;;;1.75;;
47309;SDS011;33046;52.270;6.832;2024-01-16T05:16:33;3.47;;;1.50;;
47309;SDS011;33046;52.270;6.832;2024-01-16T05:18:41;8.77;;;2.45;;
47309;SDS011;33046;52.270;6.832;2024-01-16T05:20:47;5.00;;;1.60;;
47309;SDS011;33046;52.270;6.832;2024-01-16T05:22:54;7.53;;;3.05;;
47309;SDS011;33046;52.270;6.832;2024-01-16T05:25:01;3.97;;;2.17;;
47309;SDS011;33046;52.270;6.832;2024-01-16T05:27:08;5.97;;;1.67;;
47309;SDS011;33046;52.270;6.832;2024-01-16T05:29:16;7.65;;;4.25;;
47309;SDS011;33046;52.270;6.832;2024-01-16T05:31:25;4.13;;;1.58;;
47309;SDS011;33046;52.270;6.832;2024-01-16T05:33:32;5.78;;;1.75;;
47309;SDS011;33046;52.270;6.832;2024-01-16T05:35:39;2.80;;;1.60;;
47309;SDS011;33046;52.270;6.832;2024-01-16T05:37:46;3.15;;;1.58;;
47309;SDS011;33046;52.270;6.832;2024-01-16T05:39:53;3.90;;;1.60;;
47309;SDS011;33046;52.270;6.832;2024-01-16T05:41:59;4.30;;;1.50;;
47309;SDS011;33046;52.270;6.832;2024-01-16T05:44:06;9.30;;;1.75;;
47309;SDS011;33046;52.270;6.832;2024-01-16T05:46:13;4.10;;;1.27;;
47309;SDS011;33046;52.270;6.832;2024-01-16T05:48:21;4.57;;;1.95;;
47309;SDS011;33046;52.270;6.832;2024-01-16T05:50:28;3.80;;;2.10;;
47309;SDS011;33046;52.270;6.832;2024-01-16T05:52:36;7.20;;;1.75;;
47309;SDS011;33046;52.270;6.832;2024-01-16T05:54:42;5.32;;;1.85;;
47309;SDS011;33046;52.270;6.832;2024-01-16T05:56:49;4.90;;;1.70;;
47309;SDS011;33046;52.270;6.832;2024-01-16T05:58:56;4.93;;;1.80;;
47309;SDS011;33046;52.270;6.832;2024-01-16T06:01:03;5.32;;;1.90;;
47309;SDS011;33046;52.270;6.832;2024-01-16T06:03:10;5.78;;;2.03;;
47309;SDS011;33046;52.270;6.832;2024-01-16T06:05:19;4.32;;;2.55;;
47309;SDS011;33046;52.270;6.832;2024-01-16T06:07:26;3.53;;;2.08;;
47309;SDS011;33046;52.270;6.832;2024-01-16T06:09:32;8.07;;;2.05;;
47309;SDS011;33046;52.270;6.832;2024-01-16T06:11:40;4.32;;;1.88;;
47309;SDS011;33046;52.270;6.832;2024-01-16T06:13:47;3.45;;;2.17;;
47309;SDS011;33046;52.270;6.832;2024-01-16T06:15:53;5.65;;;2.63;;
47309;SDS011;33046;52.270;6.832;2024-01-16T06:18:00;4.07;;;1.85;;
47309;SDS011;33046;52.270;6.832;2024-01-16T06:20:08;4.18;;;2.42;;
47309;SDS011;33046;52.270;6.832;2024-01-16T06:22:16;6.35;;;2.40;;
47309;SDS011;33046;52.270;6.832;2024-01-16T06:24:23;5.68;;;2.30;;
47309;SDS011;33046;52.270;6.832;2024-01-16T06:26:30;6.10;;;2.25;;
47309;SDS011;33046;52.270;6.832;2024-01-16T06:28:37;3.95;;;2.42;;
47309;SDS011;33046;52.270;6.832;2024-01-16T06:30:44;3.90;;;1.98;;
47309;SDS011;33046;52.270;6.832;2024-01-16T06:32:51;4.22;;;2.25;;
47309;SDS011;33046;52.270;6.832;2024-01-16T06:34:58;6.10;;;2.15;;
47309;SDS011;33046;52.270;6.832;2024-01-16T06:37:05;7.90;;;2.45;;
47309;SDS011;33046;52.270;6.832;2024-01-16T06:39:13;3.47;;;1.83;;
47309;SDS011;33046;52.270;6.832;2024-01-16T06:41:20;4.95;;;2.10;;
47309;SDS011;33046;52.270;6.832;2024-01-16T06:43:27;5.00;;;2.80;;
47309;SDS011;33046;52.270;6.832;2024-01-16T06:45:34;4.10;;;2.88;;
47309;SDS011;33046;52.270;6.832;2024-01-16T06:47:40;3.13;;;2.10;;
47309;SDS011;33046;52.270;6.832;2024-01-16T06:49:47;2.85;;;1.58;;
47309;SDS011;33046;52.270;6.832;2024-01-16T06:51:54;9.05;;;2.25;;
47309;SDS011;33046;52.270;6.832;2024-01-16T06:54:01;5.25;;;1.50;;
47309;SDS011;33046;52.270;6.832;2024-01-16T06:56:09;7.70;;;1.88;;
47309;SDS011;33046;52.270;6.832;2024-01-16T06:58:16;5.50;;;2.38;;
47309;SDS011;33046;52.270;6.832;2024-01-16T07:00:23;3.70;;;1.33;;
47309;SDS011;33046;52.270;6.832;2024-01-16T07:02:30;3.75;;;1.63;;
47309;SDS011;33046;52.270;6.832;2024-01-16T07:04:36;6.28;;;1.83;;
47309;SDS011;33046;52.270;6.832;2024-01-16T07:06:43;5.82;;;2.08;;
47309;SDS011;33046;52.270;6.832;2024-01-16T07:08:50;3.35;;;1.85;;
47309;SDS011;33046;52.270;6.832;2024-01-16T07:10:57;3.20;;;1.67;;
47309;SDS011;33046;52.270;6.832;2024-01-16T07:13:05;4.22;;;1.40;;
47309;SDS011;33046;52.270;6.832;2024-01-16T07:15:12;7.07;;;3.50;;
47309;SDS011;33046;52.270;6.832;2024-01-16T07:17:19;5.30;;;2.13;;
47309;SDS011;33046;52.270;6.832;2024-01-16T07:19:26;6.25;;;2.08;;
47309;SDS011;33046;52.270;6.832;2024-01-16T07:21:33;6.63;;;2.00;;
47309;SDS011;33046;52.270;6.832;2024-01-16T07:23:40;3.33;;;2.00;;
47309;SDS011;33046;52.270;6.832;2024-01-16T07:25:46;3.55;;;2.53;;
47309;SDS011;33046;52.270;6.832;2024-01-16T07:27:53;4.50;;;3.03;;
47309;SDS011;33046;52.270;6.832;2024-01-16T07:30:03;5.60;;;2.85;;
47309;SDS011;33046;52.270;6.832;2024-01-16T07:32:11;5.82;;;4.38;;
47309;SDS011;33046;52.270;6.832;2024-01-16T07:34:18;5.40;;;3.25;;
47309;SDS011;33046;52.270;6.832;2024-01-16T07:36:25;10.00;;;3.95;;
47309;SDS011;33046;52.270;6.832;2024-01-16T07:38:31;6.70;;;3.42;;
47309;SDS011;33046;52.270;6.832;2024-01-16T07:40:38;5.85;;;2.95;;
47309;SDS011;33046;52.270;6.832;2024-01-16T07:42:45;7.60;;;4.07;;
47309;SDS011;33046;52.270;6.832;2024-01-16T07:44:52;6.80;;;3.70;;
47309;SDS011;33046;52.270;6.832;2024-01-16T07:47:00;4.72;;;3.40;;
47309;SDS011;33046;52.270;6.832;2024-01-16T07:49:07;8.00;;;4.68;;
47309;SDS011;33046;52.270;6.832;2024-01-16T07:51:14;7.60;;;4.10;;
47309;SDS011;33046;52.270;6.832;2024-01-16T07:53:21;5.47;;;3.88;;
47309;SDS011;33046;52.270;6.832;2024-01-16T07:55:28;6.60;;;4.85;;
47309;SDS011;33046;52.270;6.832;2024-01-16T07:57:35;7.50;;;4.32;;
47309;SDS011;33046;52.270;6.832;2024-01-16T07:59:41;5.50;;;4.25;;
47309;SDS011;33046;52.270;6.832;2024-01-16T08:01:49;8.20;;;4.80;;
47309;SDS011;33046;52.270;6.832;2024-01-16T08:03:57;5.35;;;4.30;;
47309;SDS011;33046;52.270;6.832;2024-01-16T08:06:04;7.15;;;3.97;;
47309;SDS011;33046;52.270;6.832;2024-01-16T08:08:11;6.75;;;3.67;;
47309;SDS011;33046;52.270;6.832;2024-01-16T08:10:18;9.45;;;4.82;;
47309;SDS011;33046;52.270;6.832;2024-01-16T08:12:25;9.55;;;4.90;;
47309;SDS011;33046;52.270;6.832;2024-01-16T08:14:32;7.88;;;4.63;;
47309;SDS011;33046;52.270;6.832;2024-01-16T08:16:39;8.18;;;4.75;;
47309;SDS011;33046;52.270;6.832;2024-01-16T08:18:45;7.00;;;4.00;;
47309;SDS011;33046;52.270;6.832;2024-01-16T08:20:54;6.40;;;4.45;;
47309;SDS011;33046;52.270;6.832;2024-01-16T08:23:01;7.40;;;4.38;;
47309;SDS011;33046;52.270;6.832;2024-01-16T08:25:07;6.93;;;3.42;;
47309;SDS011;33046;52.270;6.832;2024-01-16T08:27:14;5.97;;;4.60;;
47309;SDS011;33046;52.270;6.832;2024-01-16T08:29:21;4.82;;;3.40;;
47309;SDS011;33046;52.270;6.832;2024-01-16T08:31:28;4.43;;;3.67;;
47309;SDS011;33046;52.270;6.832;2024-01-16T08:33:35;7.13;;;4.78;;
47309;SDS011;33046;52.270;6.832;2024-01-16T08:35:42;10.02;;;4.35;;
47309;SDS011;33046;52.270;6.832;2024-01-16T08:37:50;4.25;;;3.28;;
47309;SDS011;33046;52.270;6.832;2024-01-16T08:39:57;5.20;;;4.05;;
47309;SDS011;33046;52.270;6.832;2024-01-16T08:42:04;7.97;;;4.03;;
47309;SDS011;33046;52.270;6.832;2024-01-16T08:44:11;6.38;;;3.60;;
47309;SDS011;33046;52.270;6.832;2024-01-16T08:46:18;5.57;;;2.95;;
47309;SDS011;33046;52.270;6.832;2024-01-16T08:48:25;5.20;;;3.22;;
47309;SDS011;33046;52.270;6.832;2024-01-16T08:50:32;6.95;;;4.28;;
47309;SDS011;33046;52.270;6.832;2024-01-16T08:52:38;7.20;;;4.10;;
47309;SDS011;33046;52.270;6.832;2024-01-16T08:54:47;5.53;;;4.00;;
47309;SDS011;33046;52.270;6.832;2024-01-16T08:56:54;7.63;;;4.57;;
47309;SDS011;33046;52.270;6.832;2024-01-16T08:59:00;5.88;;;3.63;;
47309;SDS011;33046;52.270;6.832;2024-01-16T09:01:07;11.45;;;3.95;;
47309;SDS011;33046;52.270;6.832;2024-01-16T09:03:14;7.10;;;3.80;;
47309;SDS011;33046;52.270;6.832;2024-01-16T09:05:21;12.30;;;4.68;;
47309;SDS011;33046;52.270;6.832;2024-01-16T09:07:28;6.50;;;3.33;;
47309;SDS011;33046;52.270;6.832;2024-01-16T09:09:35;11.10;;;3.35;;
47309;SDS011;33046;52.270;6.832;2024-01-16T09:11:43;4.57;;;3.28;;
47309;SDS011;33046;52.270;6.832;2024-01-16T09:13:50;9.68;;;5.35;;
47309;SDS011;33046;52.270;6.832;2024-01-16T09:15:57;5.25;;;2.80;;
47309;SDS011;33046;52.270;6.832;2024-01-16T09:18:04;5.85;;;3.33;;
47309;SDS011;33046;52.270;6.832;2024-01-16T09:20:11;9.20;;;3.30;;
47309;SDS011;33046;52.270;6.832;2024-01-16T09:22:18;6.25;;;3.65;;
47309;SDS011;33046;52.270;6.832;2024-01-16T09:24:24;5.10;;;3.15;;
47309;SDS011;33046;52.270;6.832;2024-01-16T09:26:31;7.43;;;3.17;;
47309;SDS011;33046;52.270;6.832;2024-01-16T09:28:39;9.00;;;3.55;;
47309;SDS011;33046;52.270;6.832;2024-01-16T09:30:46;7.93;;;3.40;;
47309;SDS011;33046;52.270;6.832;2024-01-16T09:32:53;6.18;;;3.75;;
47309;SDS011;33046;52.270;6.832;2024-01-16T09:35:00;11.00;;;3.88;;
47309;SDS011;33046;52.270;6.832;2024-01-16T09:37:07;5.22;;;3.53;;
47309;SDS011;33046;52.270;6.832;2024-01-16T09:39:15;6.05;;;3.47;;
47309;SDS011;33046;52.270;6.832;2024-01-16T09:41:24;5.97;;;4.03;;
47309;SDS011;33046;52.270;6.832;2024-01-16T09:43:31;8.65;;;4.60;;
47309;SDS011;33046;52.270;6.832;2024-01-16T09:45:40;8.38;;;5.18;;
47309;SDS011;33046;52.270;6.832;2024-01-16T09:47:48;5.78;;;4.15;;
47309;SDS011;33046;52.270;6.832;2024-01-16T09:49:57;8.13;;;5.63;;
47309;SDS011;33046;52.270;6.832;2024-01-16T09:52:05;6.97;;;4.20;;
47309;SDS011;33046;52.270;6.832;2024-01-16T09:54:12;7.20;;;4.85;;
47309;SDS011;33046;52.270;6.832;2024-01-16T09:56:22;7.38;;;4.95;;
47309;SDS011;33046;52.270;6.832;2024-01-16T09:58:30;10.45;;;4.68;;
47309;SDS011;33046;52.270;6.832;2024-01-16T10:00:44;9.60;;;5.63;;
47309;SDS011;33046;52.270;6.832;2024-01-16T10:02:52;8.18;;;4.97;;
47309;SDS011;33046;52.270;6.832;2024-01-16T10:05:00;11.40;;;5.47;;
47309;SDS011;33046;52.270;6.832;2024-01-16T10:07:07;11.63;;;7.53;;
47309;SDS011;33046;52.270;6.832;2024-01-16T10:09:16;12.63;;;7.25;;
47309;SDS011;33046;52.270;6.832;2024-01-16T10:11:23;10.15;;;6.55;;
47309;SDS011;33046;52.270;6.832;2024-01-16T10:13:29;11.07;;;6.82;;
47309;SDS011;33046;52.270;6.832;2024-01-16T10:15:38;11.50;;;7.43;;
47309;SDS011;33046;52.270;6.832;2024-01-16T10:17:47;15.40;;;7.13;;
47309;SDS011;33046;52.270;6.832;2024-01-16T10:19:54;10.82;;;6.43;;
47309;SDS011;33046;52.270;6.832;2024-01-16T10:22:01;10.85;;;7.43;;
47309;SDS011;33046;52.270;6.832;2024-01-16T10:24:11;17.67;;;14.00;;
47309;SDS011;33046;52.270;6.832;2024-01-16T10:26:18;17.52;;;11.55;;
47309;SDS011;33046;52.270;6.832;2024-01-16T10:28:27;21.48;;;10.30;;
47309;SDS011;33046;52.270;6.832;2024-01-16T10:30:34;19.88;;;10.45;;
47309;SDS011;33046;52.270;6.832;2024-01-16T10:32:42;17.17;;;9.98;;
47309;SDS011;33046;52.270;6.832;2024-01-16T10:34:50;10.40;;;8.23;;
47309;SDS011;33046;52.270;6.832;2024-01-16T10:37:08;13.25;;;8.43;;
47309;SDS011;33046;52.270;6.832;2024-01-16T10:39:15;11.25;;;7.40;;
47309;SDS011;33046;52.270;6.832;2024-01-16T10:41:22;14.48;;;6.93;;
47309;SDS011;33046;52.270;6.832;2024-01-16T10:43:29;11.15;;;5.53;;
47309;SDS011;33046;52.270;6.832;2024-01-16T10:45:36;9.95;;;5.85;;
47309;SDS011;33046;52.270;6.832;2024-01-16T10:47:43;13.90;;;6.85;;
47309;SDS011;33046;52.270;6.832;2024-01-16T10:49:51;10.63;;;6.35;;
47309;SDS011;33046;52.270;6.832;2024-01-16T10:51:58;9.35;;;5.95;;
47309;SDS011;33046;52.270;6.832;2024-01-16T10:54:05;14.75;;;6.30;;
47309;SDS011;33046;52.270;6.832;2024-01-16T10:56:12;9.15;;;6.70;;
47309;SDS011;33046;52.270;6.832;2024-01-16T10:58:20;8.85;;;5.78;;
47309;SDS011;33046;52.270;6.832;2024-01-16T11:00:28;9.38;;;5.88;;
47309;SDS011;33046;52.270;6.832;2024-01-16T11:02:40;14.90;;;5.90;;
47309;SDS011;33046;52.270;6.832;2024-01-16T11:04:54;9.85;;;5.75;;
47309;SDS011;33046;52.270;6.832;2024-01-16T11:07:02;9.70;;;6.35;;
47309;SDS011;33046;52.270;6.832;2024-01-16T11:09:10;10.57;;;5.63;;
47309;SDS011;33046;52.270;6.832;2024-01-16T11:11:19;10.35;;;5.30;;
47309;SDS011;33046;52.270;6.832;2024-01-16T11:13:28;16.25;;;6.70;;
47309;SDS011;33046;52.270;6.832;2024-01-16T11:15:37;9.65;;;5.85;;
47309;SDS011;33046;52.270;6.832;2024-01-16T11:17:45;9.93;;;4.85;;
47309;SDS011;33046;52.270;6.832;2024-01-16T11:19:53;11.45;;;5.15;;
47309;SDS011;33046;52.270;6.832;2024-01-16T11:22:06;11.88;;;4.95;;
47309;SDS011;33046;52.270;6.832;2024-01-16T11:24:13;12.35;;;4.85;;
47309;SDS011;33046;52.270;6.832;2024-01-16T11:26:26;14.05;;;5.70;;
47309;SDS011;33046;52.270;6.832;2024-01-16T11:28:34;7.78;;;5.47;;
47309;SDS011;33046;52.270;6.832;2024-01-16T11:30:41;8.07;;;5.75;;
47309;SDS011;33046;52.270;6.832;2024-01-16T11:32:49;8.85;;;4.30;;
47309;SDS011;33046;52.270;6.832;2024-01-16T11:34:57;11.40;;;4.88;;
47309;SDS011;33046;52.270;6.832;2024-01-16T11:37:04;9.27;;;5.13;;
47309;SDS011;33046;52.270;6.832;2024-01-16T11:39:17;10.10;;;5.13;;
47309;SDS011;33046;52.270;6.832;2024-01-16T11:43:54;11.23;;;6.90;;
47309;SDS011;33046;52.270;6.832;2024-01-16T11:46:01;15.30;;;6.82;;
47309;SDS011;33046;52.270;6.832;2024-01-16T11:48:09;11.50;;;9.63;;
47309;SDS011;33046;52.270;6.832;2024-01-16T11:50:28;10.73;;;7.47;;
47309;SDS011;33046;52.270;6.832;2024-01-16T11:52:39;9.98;;;5.18;;
47309;SDS011;33046;52.270;6.832;2024-01-16T11:54:46;9.80;;;4.65;;
47309;SDS011;33046;52.270;6.832;2024-01-16T11:59:56;8.73;;;4.55;;
47309;SDS011;33046;52.270;6.832;2024-01-16T12:02:05;9.20;;;4.45;;
47309;SDS011;33046;52.270;6.832;2024-01-16T12:04:18;10.05;;;5.82;;
47309;SDS011;33046;52.270;6.832;2024-01-16T12:06:26;9.75;;;4.55;;
47309;SDS011;33046;52.270;6.832;2024-01-16T12:08:33;9.57;;;4.85;;
47309;SDS011;33046;52.270;6.832;2024-01-16T12:10:45;7.55;;;3.90;;
47309;SDS011;33046;52.270;6.832;2024-01-16T12:12:56;7.50;;;4.70;;
47309;SDS011;33046;52.270;6.832;2024-01-16T12:15:06;6.60;;;4.68;;
47309;SDS011;33046;52.270;6.832;2024-01-16T12:17:18;9.93;;;4.38;;
47309;SDS011;33046;52.270;6.832;2024-01-16T12:19:27;7.90;;;4.35;;
47309;SDS011;33046;52.270;6.832;2024-01-16T12:21:35;8.70;;;4.45;;
47309;SDS011;33046;52.270;6.832;2024-01-16T12:23:45;9.23;;;4.45;;
47309;SDS011;33046;52.270;6.832;2024-01-16T12:25:54;12.40;;;3.92;;
47309;SDS011;33046;52.270;6.832;2024-01-16T12:28:01;5.47;;;3.38;;
47309;SDS011;33046;52.270;6.832;2024-01-16T12:30:10;8.18;;;4.63;;
47309;SDS011;33046;52.270;6.832;2024-01-16T12:32:18;8.77;;;3.35;;
47309;SDS011;33046;52.270;6.832;2024-01-16T12:34:26;10.65;;;4.40;;
47309;SDS011;33046;52.270;6.832;2024-01-16T12:36:33;9.43;;;4.45;;
47309;SDS011;33046;52.270;6.832;2024-01-16T12:38:41;8.55;;;3.22;;
47309;SDS011;33046;52.270;6.832;2024-01-16T12:40:49;5.95;;;3.08;;
47309;SDS011;33046;52.270;6.832;2024-01-16T12:42:57;8.10;;;3.60;;
47309;SDS011;33046;52.270;6.832;2024-01-16T12:45:07;8.93;;;3.20;;
47309;SDS011;33046;52.270;6.832;2024-01-16T12:47:15;8.25;;;3.25;;
47309;SDS011;33046;52.270;6.832;2024-01-16T12:49:22;9.52;;;2.92;;
47309;SDS011;33046;52.270;6.832;2024-01-16T12:51:29;9.80;;;3.40;;